Aviation Digital Data Service (ADDS)

Output produced by METARs form (0238 UTC 22 July 2017)
found at http://www.aviationweather.gov/adds/metars/
 
HTAR 212200Z 09010KT 9999 BKN026 16/15 Q1019
HTDA 220000Z 21006KT 9999 FEW010 20/19 Q1015 NOSIG
HTDA 211700Z 2118/2224 12010KT 9999 FEW017 
     BECMG 2120/2123 00000KT 
     BECMG 2209/2212 12010KT BKN023
       
HTDO 220000Z 08012KT CAVOK 17/14 Q1018 NOSIG
HTDO 211700Z 2118/2218 09018KT 9999 FEW024
       
HTIR 220000Z 00000KT 9999 FEW016 15/11 Q1022
HTKJ 220000Z 00000KT 9999 BKN024 Q1017 N0SIG
HTKJ 211700Z 2118/2218 09010KT SCT028 
     BECMG 2122/2201 00000KT
       
HTMT 212100Z 18012KT 9999 FEW020 FEW021CB BKN080 22/19 Q1017
HTMW 220000Z 00000KT 9999 FEW019 FEW020CB SCT220 17/16 Q1015 NOSIG
HTMW 210500Z 2106/2206 09010KT 9999 FEW025 
     BECMG 2109/2112 30010KT 
     BECMG 2115/2118 00000KT CAVOK
       
HTZA 220000Z 16006KT 9999 FEW016 24/21 Q1014 NOSIG
HTZA 211700Z 2118/2218 14010KT 9999 FEW018 
     BECMG 2201/2203 21010KT SCT016 BKN080 
     BECMG 2211/2213 14010KT